createdAt,value
2023-05-06T00:02:08.236Z,4.10
2023-05-06T00:04:35.468Z,3.97
2023-05-06T00:07:02.750Z,4.13
2023-05-06T00:09:29.951Z,4.25
2023-05-06T00:11:57.157Z,4.33
2023-05-06T00:14:24.377Z,4.05
2023-05-06T00:17:03.300Z,4.10
2023-05-06T00:19:33.460Z,4.47
2023-05-06T00:22:00.720Z,4.60
2023-05-06T00:24:54.769Z,4.30
2023-05-06T00:27:22.318Z,4.38
2023-05-06T00:29:51.773Z,4.55
2023-05-06T00:32:19.174Z,4.65
2023-05-06T00:34:48.309Z,4.50
2023-05-06T00:37:15.828Z,4.60
2023-05-06T00:39:43.226Z,4.53
2023-05-06T00:42:10.687Z,4.70
2023-05-06T00:44:38.193Z,4.38
2023-05-06T00:47:06.788Z,4.82
2023-05-06T00:49:34.713Z,4.23
2023-05-06T00:52:04.461Z,4.50
2023-05-06T00:54:33.010Z,4.80
2023-05-06T00:57:01.324Z,5.07
2023-05-06T00:59:29.107Z,4.93
2023-05-06T01:01:56.909Z,4.40
2023-05-06T01:04:25.146Z,3.95
2023-05-06T01:07:05.116Z,4.72
2023-05-06T01:09:42.619Z,4.90
2023-05-06T01:12:20.910Z,4.95
2023-05-06T01:14:59.847Z,4.60
2023-05-06T01:17:29.415Z,4.68
2023-05-06T01:19:59.601Z,4.95
2023-05-06T01:22:28.693Z,4.32
2023-05-06T01:24:57.438Z,5.15
2023-05-06T01:27:25.665Z,4.57
2023-05-06T01:29:53.300Z,4.60
2023-05-06T01:32:35.511Z,5.15
2023-05-06T01:35:10.919Z,4.88
2023-05-06T01:37:45.184Z,4.97
2023-05-06T01:40:16.493Z,4.60
2023-05-06T01:42:47.444Z,4.68
2023-05-06T01:45:17.259Z,5.05
2023-05-06T01:47:46.553Z,4.70
2023-05-06T01:50:14.650Z,5.18
2023-05-06T01:52:42.063Z,4.80
2023-05-06T01:55:09.943Z,5.18
2023-05-06T01:57:38.915Z,5.03
2023-05-06T02:00:07.928Z,4.53
2023-05-06T02:02:39.495Z,5.30
2023-05-06T02:05:08.065Z,4.93
2023-05-06T02:07:39.629Z,5.20
2023-05-06T02:10:08.752Z,4.75
2023-05-06T02:12:40.284Z,4.78
2023-05-06T02:15:08.917Z,4.50
2023-05-06T02:17:37.025Z,4.87
2023-05-06T02:20:06.127Z,5.13
2023-05-06T02:22:33.461Z,4.28
2023-05-06T02:25:01.177Z,5.03
2023-05-06T02:27:28.445Z,4.88
2023-05-06T02:29:57.197Z,4.47
2023-05-06T02:32:24.551Z,4.80
2023-05-06T02:34:54.079Z,5.03
2023-05-06T02:37:23.083Z,4.47
2023-05-06T02:39:50.508Z,4.82
2023-05-06T02:42:17.809Z,4.90
2023-05-06T02:44:46.167Z,4.80
2023-05-06T02:47:14.784Z,4.90
2023-05-06T02:49:42.031Z,4.68
2023-05-06T02:52:09.287Z,5.20
2023-05-06T02:54:36.749Z,4.63
2023-05-06T02:57:04.143Z,4.15
2023-05-06T02:59:31.404Z,4.68
2023-05-06T03:01:58.796Z,4.95
2023-05-06T03:04:27.460Z,4.97
2023-05-06T03:06:54.707Z,4.63
2023-05-06T03:09:22.189Z,4.45
2023-05-06T03:11:49.747Z,4.47
2023-05-06T03:14:17.615Z,4.70
2023-05-06T03:16:45.752Z,5.10
2023-05-06T03:19:13.093Z,5.00
2023-05-06T03:21:43.463Z,4.50
2023-05-06T03:24:11.461Z,5.05
2023-05-06T03:26:39.966Z,5.03
2023-05-06T03:29:08.531Z,4.97
2023-05-06T03:31:36.760Z,4.63
2023-05-06T03:34:04.201Z,4.82
2023-05-06T03:36:31.971Z,4.70
2023-05-06T03:39:01.163Z,5.22
2023-05-06T03:41:30.199Z,5.10
2023-05-06T03:43:57.546Z,4.70
2023-05-06T03:46:27.306Z,5.07
2023-05-06T03:48:54.692Z,4.97
2023-05-06T03:51:22.309Z,4.88
2023-05-06T03:53:49.816Z,5.10
2023-05-06T03:56:18.759Z,4.73
2023-05-06T03:58:49.360Z,5.20
2023-05-06T04:01:18.170Z,5.20
2023-05-06T04:03:45.847Z,4.68
2023-05-06T04:06:13.517Z,5.00
2023-05-06T04:08:40.796Z,5.10
2023-05-06T04:11:08.516Z,5.15
2023-05-06T04:13:38.631Z,5.72
2023-05-06T04:16:12.644Z,4.93
2023-05-06T04:18:44.072Z,5.38
2023-05-06T04:21:14.491Z,5.20
2023-05-06T04:23:44.337Z,5.30
2023-05-06T04:26:15.489Z,5.60
2023-05-06T04:28:45.524Z,5.43
2023-05-06T04:31:14.629Z,4.88
2023-05-06T04:33:45.809Z,5.03
2023-05-06T04:36:17.237Z,5.13
2023-05-06T04:38:54.770Z,5.07
2023-05-06T04:41:23.658Z,5.82
2023-05-06T04:43:52.208Z,4.88
2023-05-06T04:46:23.857Z,5.03
2023-05-06T04:48:52.726Z,5.40
2023-05-06T04:51:21.368Z,5.53
2023-05-06T04:53:48.588Z,5.25
2023-05-06T04:56:16.120Z,5.72
2023-05-06T04:58:43.445Z,4.97
2023-05-06T05:01:12.140Z,5.45
2023-05-06T05:03:39.539Z,5.68
2023-05-06T05:06:09.961Z,5.60
2023-05-06T05:08:37.214Z,5.03
2023-05-06T05:11:06.195Z,5.30
2023-05-06T05:13:34.563Z,5.32
2023-05-06T05:16:01.867Z,5.35
2023-05-06T05:18:33.565Z,5.70
2023-05-06T05:21:07.024Z,5.13
2023-05-06T05:23:36.379Z,5.53
2023-05-06T05:26:03.963Z,5.28
2023-05-06T05:28:31.220Z,5.18
2023-05-06T05:31:03.024Z,5.32
2023-05-06T05:33:32.723Z,5.22
2023-05-06T05:36:00.362Z,5.53
2023-05-06T05:38:29.012Z,5.63
2023-05-06T05:40:56.336Z,5.35
2023-05-06T05:43:25.956Z,5.53
2023-05-06T05:45:54.467Z,5.60
2023-05-06T05:48:21.695Z,5.37
2023-05-06T05:50:50.337Z,5.25
2023-05-06T05:53:17.799Z,5.60
2023-05-06T05:55:45.020Z,5.13
2023-05-06T05:58:12.504Z,5.70
2023-05-06T06:00:41.360Z,5.37
2023-05-06T06:03:12.958Z,5.60
2023-05-06T06:05:40.361Z,5.88
2023-05-06T06:08:08.929Z,5.45
2023-05-06T06:10:36.345Z,5.35
2023-05-06T06:13:09.496Z,5.37
2023-05-06T06:15:37.529Z,5.25
2023-05-06T06:18:07.973Z,5.82
2023-05-06T06:20:37.066Z,5.30
2023-05-06T06:23:04.281Z,5.50
2023-05-06T06:25:32.854Z,5.07
2023-05-06T06:28:00.729Z,5.85
2023-05-06T06:30:28.427Z,5.50
2023-05-06T06:32:56.824Z,5.60
2023-05-06T06:35:24.754Z,5.68
2023-05-06T06:37:52.009Z,5.13
2023-05-06T06:40:19.453Z,5.45
2023-05-06T06:42:48.283Z,5.97
2023-05-06T06:45:51.010Z,5.40
2023-05-06T06:48:18.807Z,5.25
2023-05-06T06:50:46.506Z,5.60
2023-05-06T06:53:13.777Z,5.38
2023-05-06T06:55:43.486Z,5.20
2023-05-06T06:58:12.260Z,5.78
2023-05-06T07:00:39.485Z,5.28
2023-05-06T07:03:06.863Z,5.53
2023-05-06T07:05:34.157Z,5.57
2023-05-06T07:08:01.339Z,5.38
2023-05-06T07:10:28.676Z,5.60
2023-05-06T07:12:55.937Z,5.53
2023-05-06T07:15:24.636Z,5.20
2023-05-06T07:17:51.915Z,5.03
2023-05-06T07:20:19.162Z,6.22
2023-05-06T07:22:46.558Z,6.10
2023-05-06T07:25:13.960Z,6.07
2023-05-06T07:27:41.184Z,5.53
2023-05-06T07:30:09.131Z,5.68
2023-05-06T07:32:37.707Z,6.05
2023-05-06T07:35:05.716Z,5.88
2023-05-06T07:37:33.164Z,6.28
2023-05-06T07:40:00.608Z,5.97
2023-05-06T07:42:27.980Z,5.97
2023-05-06T07:44:55.523Z,6.10
2023-05-06T07:47:28.110Z,6.30
2023-05-06T07:49:57.104Z,6.75
2023-05-06T07:52:24.826Z,6.50
2023-05-06T07:54:52.710Z,6.75
2023-05-06T07:57:20.023Z,6.07
2023-05-06T07:59:48.369Z,6.60
2023-05-06T08:02:16.335Z,5.95
2023-05-06T08:04:44.177Z,6.93
2023-05-06T08:07:12.946Z,6.78
2023-05-06T08:09:40.268Z,7.28
2023-05-06T08:12:07.620Z,6.55
2023-05-06T08:14:34.875Z,6.88
2023-05-06T08:17:02.499Z,6.97
2023-05-06T08:19:29.853Z,6.78
2023-05-06T08:21:57.063Z,7.20
2023-05-06T08:24:25.667Z,7.63
2023-05-06T08:30:01.719Z,7.27
2023-05-06T08:32:29.705Z,7.07
2023-05-06T08:34:57.648Z,7.63
2023-05-06T08:37:25.461Z,7.70
2023-05-06T08:39:54.140Z,7.75
2023-05-06T08:42:23.257Z,7.70
2023-05-06T08:44:51.774Z,8.05
2023-05-06T08:47:20.590Z,7.40
2023-05-06T08:49:48.056Z,7.70
2023-05-06T08:52:15.457Z,7.93
2023-05-06T08:54:43.740Z,7.80
2023-05-06T08:57:13.393Z,7.45
2023-05-06T08:59:42.490Z,7.53
2023-05-06T09:02:11.486Z,7.90
2023-05-06T09:04:39.704Z,8.07
2023-05-06T09:07:08.030Z,7.70
2023-05-06T09:09:35.929Z,7.40
2023-05-06T09:12:04.043Z,7.70
2023-05-06T09:14:32.680Z,8.07
2023-05-06T09:16:59.971Z,7.57
2023-05-06T09:19:27.327Z,7.20
2023-05-06T09:21:54.666Z,7.28
2023-05-06T09:24:22.145Z,7.03
2023-05-06T09:26:55.290Z,6.63
2023-05-06T09:29:22.623Z,5.63
2023-05-06T09:31:55.109Z,5.90
2023-05-06T09:34:22.746Z,5.75
2023-05-06T09:36:52.201Z,6.05
2023-05-06T09:39:19.481Z,6.10
2023-05-06T09:41:46.845Z,6.30
2023-05-06T09:44:15.287Z,6.13
2023-05-06T09:46:42.748Z,6.07
2023-05-06T09:49:12.043Z,6.05
2023-05-06T09:51:41.477Z,6.20
2023-05-06T09:54:09.279Z,6.30
2023-05-06T09:56:38.135Z,6.07
2023-05-06T09:59:06.615Z,6.00
2023-05-06T10:01:37.134Z,5.97
2023-05-06T10:04:08.870Z,6.03
2023-05-06T10:06:40.494Z,5.30
2023-05-06T10:09:08.229Z,5.13
2023-05-06T10:11:36.001Z,5.35
2023-05-06T10:14:05.142Z,5.93
2023-05-06T10:16:35.754Z,5.93
2023-05-06T10:19:04.954Z,5.75
2023-05-06T10:21:35.572Z,5.60
2023-05-06T10:24:09.446Z,5.72
2023-05-06T10:26:37.772Z,6.07
2023-05-06T10:29:08.523Z,5.97
2023-05-06T10:31:38.902Z,5.53
2023-05-06T10:34:08.601Z,4.97
2023-05-06T10:36:37.876Z,5.78
2023-05-06T10:39:10.507Z,6.13
2023-05-06T10:41:37.871Z,6.30
2023-05-06T10:44:06.077Z,5.57
2023-05-06T10:46:56.898Z,5.73
2023-05-06T10:49:24.750Z,5.68
2023-05-06T10:52:12.064Z,5.45
2023-05-06T10:54:51.077Z,5.40
2023-05-06T10:57:20.708Z,5.65
2023-05-06T10:59:48.892Z,5.73
2023-05-06T11:02:19.803Z,5.50
2023-05-06T11:04:51.789Z,5.18
2023-05-06T11:07:23.435Z,5.00
2023-05-06T11:09:59.666Z,5.13
2023-05-06T11:12:46.466Z,4.53
2023-05-06T11:15:20.558Z,4.95
2023-05-06T11:17:47.847Z,4.40
2023-05-06T11:20:19.633Z,4.20
2023-05-06T11:22:46.880Z,3.78
2023-05-06T11:25:41.789Z,3.50
2023-05-06T11:28:10.276Z,3.78
2023-05-06T11:30:41.081Z,4.03
2023-05-06T11:33:09.334Z,3.70
2023-05-06T11:35:37.128Z,3.85
2023-05-06T11:38:04.808Z,3.70
2023-05-06T11:40:33.582Z,3.95
2023-05-06T11:43:11.054Z,3.80
2023-05-06T11:45:42.926Z,3.58
2023-05-06T11:48:12.140Z,3.70
2023-05-06T11:50:43.599Z,3.60
2023-05-06T11:53:11.013Z,3.78
2023-05-06T11:55:40.406Z,3.25
2023-05-06T11:58:12.759Z,3.72
2023-05-06T12:00:46.748Z,3.42
2023-05-06T12:03:14.727Z,4.00
2023-05-06T12:05:42.292Z,3.88
2023-05-06T12:08:23.426Z,4.03
2023-05-06T12:10:57.899Z,3.65
2023-05-06T12:13:26.844Z,3.67
2023-05-06T12:15:55.003Z,3.40
2023-05-06T12:18:23.612Z,3.40
2023-05-06T12:20:53.883Z,3.22
2023-05-06T12:23:22.064Z,3.38
2023-05-06T12:26:03.740Z,3.72
2023-05-06T12:28:32.316Z,3.07
2023-05-06T12:30:59.595Z,3.38
2023-05-06T12:33:26.812Z,3.47
2023-05-06T12:35:58.234Z,3.25
2023-05-06T12:38:25.653Z,3.35
2023-05-06T12:40:54.413Z,3.30
2023-05-06T12:43:30.777Z,3.30
2023-05-06T12:46:05.145Z,3.40
2023-05-06T12:48:32.628Z,3.28
2023-05-06T12:51:00.162Z,3.45
2023-05-06T12:53:36.166Z,3.70
2023-05-06T12:56:03.611Z,3.22
2023-05-06T12:58:37.596Z,3.30
2023-05-06T13:01:05.422Z,3.17
2023-05-06T13:03:33.901Z,3.13
2023-05-06T13:06:02.386Z,3.07
2023-05-06T13:08:29.757Z,2.92
2023-05-06T13:10:57.110Z,2.97
2023-05-06T13:13:24.598Z,2.60
2023-05-06T13:15:54.229Z,2.60
2023-05-06T13:18:22.121Z,2.67
2023-05-06T13:20:49.470Z,2.88
2023-05-06T13:23:16.799Z,2.92
2023-05-06T13:26:00.381Z,2.78
2023-05-06T13:28:31.965Z,2.72
2023-05-06T13:31:00.917Z,2.70
2023-05-06T13:33:28.251Z,2.90
2023-05-06T13:35:55.683Z,2.50
2023-05-06T13:38:23.109Z,2.67
2023-05-06T13:40:51.640Z,3.10
2023-05-06T13:43:19.086Z,2.80
2023-05-06T13:45:46.546Z,2.47
2023-05-06T13:48:15.752Z,3.10
2023-05-06T13:50:43.804Z,2.50
2023-05-06T13:53:11.603Z,2.78
2023-05-06T13:55:39.441Z,2.70
2023-05-06T13:58:07.568Z,2.63
2023-05-06T14:00:38.415Z,2.83
2023-05-06T14:03:05.879Z,3.15
2023-05-06T14:05:34.623Z,3.15
2023-05-06T14:08:01.931Z,3.00
2023-05-06T14:10:29.317Z,2.70
2023-05-06T14:12:56.670Z,2.90
2023-05-06T14:15:23.976Z,3.00
2023-05-06T14:17:51.273Z,2.90
2023-05-06T14:20:18.702Z,3.20
2023-05-06T14:22:48.386Z,3.00
2023-05-06T14:25:15.869Z,2.72
2023-05-06T14:27:45.519Z,2.55
2023-05-06T14:30:13.729Z,2.72
2023-05-06T14:32:41.086Z,2.87
2023-05-06T14:35:10.182Z,2.85
2023-05-06T14:37:37.932Z,2.85
2023-05-06T14:40:08.115Z,3.22
2023-05-06T14:42:35.871Z,2.83
2023-05-06T14:45:03.944Z,2.50
2023-05-06T14:47:31.541Z,2.85
2023-05-06T14:49:59.090Z,2.20
2023-05-06T14:52:26.793Z,2.25
2023-05-06T14:54:54.241Z,2.40
2023-05-06T14:57:23.865Z,2.33
2023-05-06T14:59:51.986Z,2.40
2023-05-06T15:02:19.406Z,2.40
2023-05-06T15:04:47.001Z,2.20
2023-05-06T15:07:14.404Z,2.47
2023-05-06T15:09:43.986Z,2.50
2023-05-06T15:12:11.650Z,2.60
2023-05-06T15:14:40.464Z,2.70
2023-05-06T15:17:08.032Z,2.22
2023-05-06T15:19:35.743Z,2.65
2023-05-06T15:22:03.480Z,2.47
2023-05-06T15:24:30.850Z,2.78
2023-05-06T15:26:58.255Z,2.75
2023-05-06T15:29:25.652Z,2.70
2023-05-06T15:31:54.435Z,2.90
2023-05-06T15:34:21.809Z,2.67
2023-05-06T15:36:52.146Z,2.80
2023-05-06T15:39:19.634Z,2.88
2023-05-06T15:41:48.065Z,3.05
2023-05-06T15:44:16.415Z,3.10
2023-05-06T15:46:43.944Z,3.27
2023-05-06T15:49:46.639Z,3.17
2023-05-06T15:52:01.220Z,3.30
2023-05-06T15:54:28.983Z,2.83
2023-05-06T15:56:56.780Z,3.20
2023-05-06T15:59:24.057Z,2.93
2023-05-06T16:02:25.329Z,3.10
2023-05-06T16:04:40.306Z,3.20
2023-05-06T16:07:07.760Z,3.28
2023-05-06T16:09:35.090Z,3.22
2023-05-06T16:12:02.480Z,3.47
2023-05-06T16:14:29.776Z,4.00
2023-05-06T16:16:58.241Z,3.80
2023-05-06T16:19:26.059Z,3.58
2023-05-06T16:21:55.762Z,3.85
2023-05-06T16:24:23.128Z,3.77
2023-05-06T16:26:50.476Z,3.47
2023-05-06T16:29:20.403Z,3.60
2023-05-06T16:31:48.380Z,3.45
2023-05-06T16:34:16.086Z,3.45
2023-05-06T16:36:43.605Z,3.60
2023-05-06T16:39:12.422Z,4.00
2023-05-06T16:41:39.713Z,3.67
2023-05-06T16:44:07.001Z,3.40
2023-05-06T16:46:34.360Z,3.92
2023-05-06T16:49:03.736Z,3.73
2023-05-06T16:51:32.029Z,3.40
2023-05-06T16:53:59.410Z,3.40
2023-05-06T16:56:36.675Z,3.50
2023-05-06T16:59:11.614Z,3.53
2023-05-06T17:01:38.999Z,3.60
2023-05-06T17:04:06.401Z,3.50
2023-05-06T17:06:33.771Z,3.80
2023-05-06T17:09:01.084Z,3.78
2023-05-06T17:11:29.683Z,3.65
2023-05-06T17:13:56.922Z,3.73
2023-05-06T17:16:24.320Z,3.50
2023-05-06T17:18:51.699Z,3.88
2023-05-06T17:21:20.584Z,3.72
2023-05-06T17:23:47.962Z,3.58
2023-05-06T17:26:17.705Z,3.40
2023-05-06T17:28:47.390Z,3.67
2023-05-06T17:31:15.779Z,4.28
2023-05-06T17:33:44.284Z,4.53
2023-05-06T17:36:12.693Z,4.25
2023-05-06T17:38:40.069Z,4.03
2023-05-06T17:41:07.422Z,4.13
2023-05-06T17:43:34.741Z,4.32
2023-05-06T17:46:03.968Z,4.53
2023-05-06T17:48:31.371Z,4.30
2023-05-06T17:51:00.800Z,4.50
2023-05-06T17:53:28.511Z,4.13
2023-05-06T17:55:55.984Z,4.53
2023-05-06T17:58:23.698Z,4.10
2023-05-06T18:00:51.011Z,4.45
2023-05-06T18:03:19.826Z,4.47
2023-05-06T18:05:47.324Z,4.30
2023-05-06T18:08:14.624Z,4.60
2023-05-06T18:10:42.022Z,4.35
2023-05-06T18:13:09.540Z,4.65
2023-05-06T18:15:37.004Z,4.80
2023-05-06T18:18:04.556Z,4.47
2023-05-06T18:20:33.766Z,4.50
2023-05-06T18:23:01.163Z,4.95
2023-05-06T18:25:28.556Z,5.15
2023-05-06T18:27:55.955Z,5.13
2023-05-06T18:30:23.583Z,5.43
2023-05-06T18:32:52.282Z,4.78
2023-05-06T18:35:20.714Z,5.53
2023-05-06T18:37:49.297Z,5.70
2023-05-06T18:40:16.701Z,5.73
2023-05-06T18:42:44.048Z,6.03
2023-05-06T18:45:12.260Z,5.95
2023-05-06T18:47:40.172Z,6.40
2023-05-06T18:50:08.582Z,6.88
2023-05-06T18:52:37.476Z,6.40
2023-05-06T18:55:07.452Z,6.60
2023-05-06T18:57:34.802Z,6.45
2023-05-06T19:00:02.170Z,7.22
2023-05-06T19:02:29.671Z,7.22
2023-05-06T19:04:58.172Z,6.67
2023-05-06T19:07:25.727Z,7.00
2023-05-06T19:09:53.010Z,6.55
2023-05-06T19:12:22.768Z,6.97
2023-05-06T19:14:50.244Z,7.20
2023-05-06T19:17:17.529Z,7.30
2023-05-06T19:19:46.936Z,7.53
2023-05-06T19:22:15.425Z,7.47
2023-05-06T19:24:42.739Z,7.60
2023-05-06T19:27:10.452Z,8.13
2023-05-06T19:29:39.063Z,8.13
2023-05-06T19:32:06.658Z,8.45
2023-05-06T19:34:34.060Z,7.57
2023-05-06T19:37:01.377Z,8.23
2023-05-06T19:39:28.727Z,8.23
2023-05-06T19:41:56.108Z,8.43
2023-05-06T19:44:23.409Z,8.32
2023-05-06T19:46:56.385Z,8.73
2023-05-06T19:49:23.774Z,7.63
2023-05-06T19:51:51.086Z,9.32
2023-05-06T19:54:19.442Z,8.43
2023-05-06T19:56:46.799Z,9.52
2023-05-06T19:59:14.138Z,9.05
2023-05-06T20:01:41.504Z,8.73
2023-05-06T20:04:10.442Z,9.02
2023-05-06T20:06:37.759Z,9.27
2023-05-06T20:09:05.024Z,9.73
2023-05-06T20:11:32.401Z,9.95
2023-05-06T20:13:59.716Z,9.55
2023-05-06T20:16:27.062Z,10.02
2023-05-06T20:18:54.444Z,9.63
2023-05-06T20:21:23.080Z,9.65
2023-05-06T20:23:50.473Z,9.57
2023-05-06T20:26:17.818Z,9.38
2023-05-06T20:28:45.162Z,10.00
2023-05-06T20:31:12.484Z,9.97
2023-05-06T20:33:39.902Z,9.43
2023-05-06T20:36:07.593Z,9.60
2023-05-06T20:38:36.497Z,9.13
2023-05-06T20:41:03.891Z,9.40
2023-05-06T20:43:32.649Z,9.60
2023-05-06T20:46:00.013Z,9.40
2023-05-06T20:48:27.812Z,9.90
2023-05-06T20:50:56.963Z,9.93
2023-05-06T20:53:24.283Z,9.73
2023-05-06T20:55:53.203Z,10.70
2023-05-06T20:58:20.594Z,9.77
2023-05-06T21:00:48.002Z,9.85
2023-05-06T21:03:15.486Z,9.40
2023-05-06T21:05:42.893Z,10.73
2023-05-06T21:08:10.482Z,9.93
2023-05-06T21:10:37.857Z,10.45
2023-05-06T21:13:06.894Z,10.55
2023-05-06T21:15:34.467Z,10.43
2023-05-06T21:18:01.854Z,10.40
2023-05-06T21:20:29.239Z,10.80
2023-05-06T21:22:56.863Z,10.88
2023-05-06T21:25:24.445Z,10.30
2023-05-06T21:27:51.751Z,11.10
2023-05-06T21:30:21.429Z,11.02
2023-05-06T21:32:48.780Z,10.97
2023-05-06T21:35:16.457Z,10.75
2023-05-06T21:37:43.737Z,10.93
2023-05-06T21:40:12.021Z,11.27
2023-05-06T21:42:39.304Z,10.48
2023-05-06T21:45:07.608Z,11.13
2023-05-06T21:47:36.374Z,10.70
2023-05-06T21:50:03.967Z,11.32
2023-05-06T21:52:31.546Z,10.60
2023-05-06T21:54:58.824Z,10.68
2023-05-06T21:57:26.490Z,10.67
2023-05-06T21:59:53.834Z,10.20
2023-05-06T22:02:21.184Z,11.50
2023-05-06T22:04:49.890Z,10.73
2023-05-06T22:07:17.324Z,10.25
2023-05-06T22:09:44.720Z,9.73
2023-05-06T22:12:12.823Z,11.10
2023-05-06T22:14:41.776Z,11.30
2023-05-06T22:17:10.265Z,10.68
2023-05-06T22:19:38.330Z,9.15
2023-05-06T22:22:07.579Z,11.03
2023-05-06T22:24:34.933Z,9.77
2023-05-06T22:27:03.040Z,9.52
2023-05-06T22:29:30.235Z,9.88
2023-05-06T22:31:57.555Z,10.48
2023-05-06T22:34:24.733Z,9.23
2023-05-06T22:36:52.080Z,10.10
2023-05-06T22:39:20.602Z,9.43
2023-05-06T22:41:50.236Z,9.57
2023-05-06T22:44:17.474Z,9.50
2023-05-06T22:46:44.676Z,9.70
2023-05-06T22:49:11.869Z,10.43
2023-05-06T22:51:39.090Z,9.90
2023-05-06T22:54:06.273Z,9.73
2023-05-06T22:56:34.854Z,9.52
2023-05-06T22:59:02.084Z,9.07
2023-05-06T23:01:32.614Z,9.95
2023-05-06T23:03:59.929Z,9.65
2023-05-06T23:06:28.044Z,9.82
2023-05-06T23:08:55.294Z,10.13
2023-05-06T23:11:22.712Z,10.10
2023-05-06T23:13:51.698Z,10.77
2023-05-06T23:16:18.938Z,10.68
2023-05-06T23:18:46.251Z,10.25
2023-05-06T23:21:13.531Z,9.68
2023-05-06T23:23:40.968Z,10.30
2023-05-06T23:26:08.205Z,10.95
2023-05-06T23:28:35.614Z,10.27
2023-05-06T23:31:04.210Z,9.90
2023-05-06T23:33:31.481Z,9.95
2023-05-06T23:35:59.893Z,9.90
2023-05-06T23:38:27.126Z,10.35
2023-05-06T23:40:54.945Z,10.13
2023-05-06T23:43:22.169Z,9.50
2023-05-06T23:45:49.383Z,10.15
2023-05-06T23:48:17.895Z,10.20
2023-05-06T23:50:45.203Z,9.60
2023-05-06T23:53:12.417Z,9.98
2023-05-06T23:55:42.560Z,9.73
2023-05-06T23:58:10.235Z,10.05
